createdAt,value
2019-01-26T00:00:45.225Z,30.30
2019-01-26T00:01:45.214Z,30.40
2019-01-26T00:02:45.203Z,30.80
2019-01-26T00:03:45.193Z,29.60
2019-01-26T00:04:45.181Z,30.50
2019-01-26T00:05:45.171Z,30.30
2019-01-26T00:06:45.160Z,30.70
2019-01-26T00:07:45.149Z,31.30
2019-01-26T00:08:45.141Z,31.00
2019-01-26T00:09:45.134Z,30.10
2019-01-26T00:10:45.129Z,30.90
2019-01-26T00:11:45.108Z,30.00
2019-01-26T00:12:45.096Z,30.30
2019-01-26T00:13:45.084Z,31.40
2019-01-26T00:14:45.085Z,30.80
2019-01-26T00:16:03.690Z,29.60
2019-01-26T00:17:05.698Z,30.10
2019-01-26T00:18:27.095Z,29.50
2019-01-26T00:19:27.081Z,30.80
2019-01-26T00:20:27.065Z,30.30
2019-01-26T00:21:27.055Z,29.80
2019-01-26T00:22:27.046Z,29.70
2019-01-26T00:23:27.033Z,31.70
2019-01-26T00:24:27.025Z,30.10
2019-01-26T00:25:27.022Z,32.20
2019-01-26T00:26:27.000Z,31.20
2019-01-26T00:27:26.993Z,30.20
2019-01-26T00:28:26.986Z,29.70
2019-01-26T00:29:26.969Z,30.20
2019-01-26T00:30:26.965Z,31.30
2019-01-26T00:31:26.956Z,30.30
2019-01-26T00:32:26.935Z,30.20
2019-01-26T00:33:26.929Z,31.10
2019-01-26T00:34:26.923Z,29.90
2019-01-26T00:35:26.909Z,29.80
2019-01-26T00:36:26.904Z,30.20
2019-01-26T00:37:26.888Z,42.20
2019-01-26T00:38:26.872Z,31.10
2019-01-26T00:39:26.973Z,31.30
2019-01-26T00:40:26.860Z,33.00
2019-01-26T00:41:26.839Z,32.40
2019-01-26T00:42:26.831Z,31.10
2019-01-26T00:43:26.817Z,31.20
2019-01-26T00:44:26.807Z,52.80
2019-01-26T00:45:26.796Z,36.60
2019-01-26T00:46:28.518Z,34.70
2019-01-26T00:47:26.776Z,31.60
2019-01-26T00:48:26.768Z,31.30
2019-01-26T00:49:26.751Z,32.20
2019-01-26T00:50:26.742Z,32.20
2019-01-26T00:51:26.731Z,31.60
2019-01-26T00:52:26.721Z,30.30
2019-01-26T00:53:26.709Z,31.80
2019-01-26T00:54:26.698Z,30.90
2019-01-26T00:55:26.687Z,30.80
2019-01-26T00:56:26.678Z,32.10
2019-01-26T00:57:26.671Z,31.10
2019-01-26T00:58:26.656Z,32.70
2019-01-26T00:59:27.557Z,31.00
2019-01-26T01:00:26.642Z,31.30
2019-01-26T01:01:26.623Z,30.50
2019-01-26T01:02:26.612Z,30.90
2019-01-26T01:03:26.607Z,31.70
2019-01-26T01:04:26.593Z,30.80
2019-01-26T01:05:26.582Z,32.20
2019-01-26T01:06:26.569Z,31.90
2019-01-26T01:07:26.562Z,30.60
2019-01-26T01:08:26.546Z,31.20
2019-01-26T01:09:26.555Z,33.30
2019-01-26T01:10:26.530Z,32.60
2019-01-26T01:11:26.516Z,32.80
2019-01-26T01:12:26.504Z,31.70
2019-01-26T01:13:26.493Z,31.10
2019-01-26T01:14:26.485Z,31.20
2019-01-26T01:15:26.472Z,32.00
2019-01-26T01:16:26.461Z,30.80
2019-01-26T01:17:26.450Z,32.60
2019-01-26T01:18:26.439Z,31.70
2019-01-26T01:19:26.429Z,33.40
2019-01-26T01:20:26.421Z,33.00
2019-01-26T01:21:26.407Z,32.00
2019-01-26T01:22:26.398Z,32.10
2019-01-26T01:23:26.384Z,31.40
2019-01-26T01:24:26.377Z,32.10
2019-01-26T01:25:26.362Z,30.70
2019-01-26T01:26:26.352Z,32.70
2019-01-26T01:27:26.345Z,31.30
2019-01-26T01:28:26.338Z,32.00
2019-01-26T01:29:26.321Z,31.10
2019-01-26T01:30:45.937Z,32.50
2019-01-26T01:32:19.634Z,30.70
2019-01-26T01:33:19.602Z,31.10
2019-01-26T01:34:39.235Z,32.40
2019-01-26T01:36:01.626Z,29.50
2019-01-26T01:37:01.620Z,31.30
2019-01-26T01:38:01.604Z,31.90
2019-01-26T01:39:01.593Z,32.00
2019-01-26T01:40:01.587Z,30.70
2019-01-26T01:41:01.573Z,32.30
2019-01-26T01:42:01.568Z,32.30
2019-01-26T01:43:01.551Z,31.70
2019-01-26T01:44:01.538Z,31.80
2019-01-26T01:45:01.530Z,32.20
2019-01-26T01:46:01.517Z,32.80
2019-01-26T01:47:01.506Z,32.20
2019-01-26T01:48:01.499Z,31.80
2019-01-26T01:49:01.484Z,32.00
2019-01-26T01:50:01.476Z,33.30
2019-01-26T01:51:01.463Z,30.80
2019-01-26T01:52:01.453Z,31.10
2019-01-26T01:53:01.443Z,31.20
2019-01-26T01:54:01.446Z,30.90
2019-01-26T01:55:01.426Z,32.80
2019-01-26T01:56:01.413Z,32.40
2019-01-26T01:57:01.400Z,31.30
2019-01-26T01:58:01.389Z,31.10
2019-01-26T01:59:01.382Z,30.80
2019-01-26T02:00:01.379Z,33.50
2019-01-26T02:01:01.356Z,32.00
2019-01-26T02:02:01.346Z,31.60
2019-01-26T02:03:01.334Z,32.10
2019-01-26T02:04:01.323Z,31.40
2019-01-26T02:05:01.312Z,31.40
2019-01-26T02:06:01.302Z,30.60
2019-01-26T02:07:01.291Z,30.70
2019-01-26T02:08:01.280Z,32.40
2019-01-26T02:09:01.269Z,32.50
2019-01-26T02:10:01.267Z,31.80
2019-01-26T02:11:01.256Z,30.80
2019-01-26T02:12:01.238Z,31.00
2019-01-26T02:13:01.227Z,30.80
2019-01-26T02:14:01.214Z,29.90
2019-01-26T02:15:01.206Z,30.80
2019-01-26T02:16:20.829Z,30.30
2019-01-26T02:17:43.231Z,26.30
2019-01-26T02:18:43.217Z,30.30
2019-01-26T02:19:43.206Z,31.00
2019-01-26T02:20:43.197Z,31.20
2019-01-26T02:21:43.184Z,30.00
2019-01-26T02:22:43.175Z,29.90
2019-01-26T02:23:43.165Z,31.50
2019-01-26T02:24:43.151Z,30.50
2019-01-26T02:25:43.146Z,29.30
2019-01-26T02:26:43.134Z,30.20
2019-01-26T02:27:43.118Z,29.10
2019-01-26T02:28:43.125Z,30.10
2019-01-26T02:29:43.096Z,30.30
2019-01-26T02:30:43.087Z,30.30
2019-01-26T02:31:43.082Z,29.80
2019-01-26T02:32:43.065Z,28.90
2019-01-26T02:33:43.054Z,30.40
2019-01-26T02:34:43.042Z,30.70
2019-01-26T02:35:43.033Z,29.40
2019-01-26T02:36:43.021Z,30.10
2019-01-26T02:37:43.010Z,29.40
2019-01-26T02:38:43.000Z,29.00
2019-01-26T02:39:42.990Z,28.80
2019-01-26T02:40:42.978Z,30.30
2019-01-26T02:41:42.968Z,29.90
2019-01-26T02:42:42.955Z,30.30
2019-01-26T02:43:42.952Z,29.40
2019-01-26T02:44:42.934Z,30.10
2019-01-26T02:45:42.922Z,30.40
2019-01-26T02:46:42.915Z,30.50
2019-01-26T02:47:42.911Z,29.60
2019-01-26T02:48:42.894Z,29.60
2019-01-26T02:49:42.881Z,29.70
2019-01-26T02:50:42.869Z,30.20
2019-01-26T02:51:42.860Z,30.70
2019-01-26T02:52:42.851Z,30.10
2019-01-26T02:53:42.838Z,30.20
2019-01-26T02:54:42.828Z,30.10
2019-01-26T02:55:42.828Z,31.60
2019-01-26T02:56:42.803Z,30.30
2019-01-26T02:57:42.791Z,30.90
2019-01-26T02:58:42.781Z,30.70
2019-01-26T02:59:42.772Z,31.10
2019-01-26T03:00:42.765Z,30.40
2019-01-26T03:01:42.747Z,31.40
2019-01-26T03:02:42.738Z,31.20
2019-01-26T03:03:42.726Z,32.00
2019-01-26T03:04:42.725Z,30.20
2019-01-26T03:05:42.713Z,31.20
2019-01-26T03:06:42.702Z,31.30
2019-01-26T03:07:42.686Z,31.60
2019-01-26T03:08:42.674Z,30.30
2019-01-26T03:09:42.660Z,30.70
2019-01-26T03:10:42.661Z,31.50
2019-01-26T03:11:42.665Z,31.30
2019-01-26T03:12:42.651Z,31.60
2019-01-26T03:13:42.616Z,31.90
2019-01-26T03:14:42.607Z,31.10
2019-01-26T03:15:42.594Z,31.20
2019-01-26T03:16:42.585Z,31.90
2019-01-26T03:17:42.589Z,30.60
2019-01-26T03:18:42.564Z,32.20
2019-01-26T03:19:42.551Z,31.10
2019-01-26T03:20:42.547Z,31.20
2019-01-26T03:21:42.534Z,32.10
2019-01-26T03:22:42.525Z,31.30
2019-01-26T03:23:42.513Z,32.00
2019-01-26T03:24:42.503Z,31.80
2019-01-26T03:25:42.491Z,32.60
2019-01-26T03:26:42.475Z,31.80
2019-01-26T03:27:42.466Z,30.90
2019-01-26T03:28:42.452Z,30.90
2019-01-26T03:29:42.442Z,32.60
2019-01-26T03:30:42.439Z,32.00
2019-01-26T03:31:42.433Z,32.00
2019-01-26T03:32:42.411Z,32.40
2019-01-26T03:33:42.401Z,31.00
2019-01-26T03:34:42.392Z,31.70
2019-01-26T03:35:42.379Z,30.40
2019-01-26T03:36:42.368Z,30.60
2019-01-26T03:37:42.359Z,31.40
2019-01-26T03:38:42.345Z,32.10
2019-01-26T03:39:42.334Z,31.30
2019-01-26T03:40:42.340Z,31.40
2019-01-26T03:41:42.319Z,30.40
2019-01-26T03:42:42.299Z,31.10
2019-01-26T03:43:42.289Z,31.60
2019-01-26T03:44:42.295Z,30.10
2019-01-26T03:45:42.276Z,31.50
2019-01-26T03:46:42.261Z,31.80
2019-01-26T03:47:42.246Z,31.50
2019-01-26T03:48:42.238Z,32.00
2019-01-26T03:49:42.224Z,33.00
2019-01-26T03:50:42.214Z,31.70
2019-01-26T03:51:42.205Z,32.80
2019-01-26T03:52:42.191Z,33.00
2019-01-26T03:53:42.179Z,31.20
2019-01-26T03:54:42.173Z,32.60
2019-01-26T03:55:42.164Z,30.90
2019-01-26T03:56:42.151Z,31.90
2019-01-26T03:57:42.159Z,31.60
2019-01-26T03:58:42.131Z,32.50
2019-01-26T03:59:42.114Z,32.60
2019-01-26T04:00:42.105Z,32.00
2019-01-26T04:01:42.098Z,30.40
2019-01-26T04:02:42.088Z,31.20
2019-01-26T04:03:42.072Z,32.10
2019-01-26T04:04:42.058Z,30.80
2019-01-26T04:05:42.051Z,33.30
2019-01-26T04:06:42.044Z,31.90
2019-01-26T04:07:42.028Z,32.10
2019-01-26T04:08:42.019Z,32.80
2019-01-26T04:09:42.006Z,32.30
2019-01-26T04:10:42.008Z,31.00
2019-01-26T04:11:41.982Z,32.30
2019-01-26T04:12:41.972Z,33.70
2019-01-26T04:13:41.961Z,32.30
2019-01-26T04:14:41.955Z,32.60
2019-01-26T04:15:41.940Z,31.80
2019-01-26T04:16:41.932Z,32.80
2019-01-26T04:17:41.917Z,32.90
2019-01-26T04:18:41.909Z,32.20
2019-01-26T04:19:41.900Z,32.80
2019-01-26T04:20:41.886Z,31.30
2019-01-26T04:21:41.886Z,32.40
2019-01-26T04:22:41.862Z,32.10
2019-01-26T04:23:41.858Z,33.10
2019-01-26T04:24:41.841Z,33.40
2019-01-26T04:25:41.840Z,32.70
2019-01-26T04:26:41.820Z,34.20
2019-01-26T04:27:41.808Z,34.30
2019-01-26T04:28:41.801Z,33.60
2019-01-26T04:29:41.822Z,32.40
2019-01-26T04:30:41.785Z,32.70
2019-01-26T04:31:41.783Z,33.40
2019-01-26T04:32:41.753Z,34.30
2019-01-26T04:33:41.743Z,35.20
2019-01-26T04:34:41.731Z,33.60
2019-01-26T04:36:38.480Z,29.10
2019-01-26T04:37:38.469Z,31.60
2019-01-26T04:39:20.502Z,34.50
2019-01-26T04:40:20.490Z,34.70
2019-01-26T04:41:20.482Z,34.90
2019-01-26T04:42:20.465Z,33.90
2019-01-26T04:43:20.451Z,34.40
2019-01-26T04:44:20.458Z,34.30
2019-01-26T04:45:20.431Z,34.70
2019-01-26T04:46:20.420Z,36.00
2019-01-26T04:47:20.409Z,35.50
2019-01-26T04:48:20.412Z,35.40
2019-01-26T04:49:20.386Z,34.50
2019-01-26T04:50:20.376Z,35.40
2019-01-26T04:51:20.370Z,35.80
2019-01-26T04:52:20.355Z,35.10
2019-01-26T04:53:20.342Z,35.00
2019-01-26T04:54:20.336Z,34.90
2019-01-26T04:55:20.321Z,36.60
2019-01-26T04:56:20.311Z,36.30
2019-01-26T04:58:21.508Z,35.20
2019-01-26T04:59:21.503Z,37.80
2019-01-26T05:00:21.497Z,35.20
2019-01-26T05:01:21.476Z,35.10
2019-01-26T05:02:21.467Z,35.60
2019-01-26T05:03:21.462Z,35.10
2019-01-26T05:04:21.444Z,35.90
2019-01-26T05:05:21.442Z,35.40
2019-01-26T05:06:21.424Z,36.40
2019-01-26T05:07:21.411Z,35.40
2019-01-26T05:08:21.401Z,35.00
2019-01-26T05:09:21.391Z,35.80
2019-01-26T05:10:21.379Z,40.90
2019-01-26T05:11:21.384Z,37.70
2019-01-26T05:12:21.359Z,36.30
2019-01-26T05:13:21.346Z,35.00
2019-01-26T05:14:21.336Z,37.80
2019-01-26T05:15:21.325Z,35.60
2019-01-26T05:16:21.316Z,35.60
2019-01-26T05:17:21.308Z,35.80
2019-01-26T05:18:21.301Z,34.80
2019-01-26T05:19:21.281Z,35.90
2019-01-26T05:20:21.270Z,36.00
2019-01-26T05:21:21.261Z,37.00
2019-01-26T05:22:21.253Z,37.20
2019-01-26T05:23:21.240Z,37.10
2019-01-26T05:24:21.228Z,37.10
2019-01-26T05:25:21.217Z,37.70
2019-01-26T05:26:21.208Z,39.40
2019-01-26T05:27:21.195Z,37.50
2019-01-26T05:28:21.187Z,35.60
2019-01-26T05:29:21.175Z,38.70
2019-01-26T05:30:21.164Z,35.80
2019-01-26T05:31:21.151Z,37.20
2019-01-26T05:32:21.140Z,38.70
2019-01-26T05:33:21.131Z,37.10
2019-01-26T05:34:21.123Z,38.20
2019-01-26T05:35:21.109Z,38.10
2019-01-26T05:36:21.099Z,38.10
2019-01-26T05:37:21.086Z,39.10
2019-01-26T05:38:21.078Z,39.30
2019-01-26T05:39:21.069Z,37.80
2019-01-26T05:40:21.061Z,37.00
2019-01-26T05:41:21.043Z,37.60
2019-01-26T05:42:21.033Z,37.40
2019-01-26T05:43:21.034Z,38.70
2019-01-26T05:44:21.013Z,38.80
2019-01-26T05:45:20.999Z,39.50
2019-01-26T05:46:20.988Z,39.20
2019-01-26T05:47:20.981Z,40.40
2019-01-26T05:48:20.969Z,39.80
2019-01-26T05:49:20.957Z,37.20
2019-01-26T05:50:20.947Z,40.40
2019-01-26T05:51:20.940Z,40.70
2019-01-26T05:52:20.923Z,40.70
2019-01-26T05:53:20.914Z,39.20
2019-01-26T05:54:20.903Z,38.50
2019-01-26T05:55:20.898Z,39.10
2019-01-26T05:56:20.883Z,38.50
2019-01-26T05:57:20.875Z,41.20
2019-01-26T05:58:20.860Z,42.00
2019-01-26T05:59:20.848Z,42.80
2019-01-26T06:00:20.839Z,42.40
2019-01-26T06:01:20.829Z,42.00
2019-01-26T06:02:20.832Z,41.20
2019-01-26T06:03:20.810Z,40.20
2019-01-26T06:04:20.794Z,40.70
2019-01-26T06:05:20.786Z,42.30
2019-01-26T06:06:20.771Z,40.40
2019-01-26T06:07:20.765Z,40.80
2019-01-26T06:08:20.753Z,41.10
2019-01-26T06:09:20.740Z,40.00
2019-01-26T06:10:20.730Z,38.90
2019-01-26T06:11:20.719Z,39.20
2019-01-26T06:12:20.710Z,42.30
2019-01-26T06:13:20.700Z,37.40
2019-01-26T06:14:20.691Z,38.20
2019-01-26T06:15:20.675Z,39.20
2019-01-26T06:16:20.663Z,38.40
2019-01-26T06:17:20.653Z,38.40
2019-01-26T06:18:20.643Z,37.20
2019-01-26T06:19:20.634Z,38.90
2019-01-26T06:20:20.627Z,37.50
2019-01-26T06:21:20.612Z,36.80
2019-01-26T06:22:20.598Z,37.60
2019-01-26T06:23:20.589Z,36.70
2019-01-26T06:24:20.578Z,35.40
2019-01-26T06:25:20.569Z,35.00
2019-01-26T06:26:20.555Z,37.00
2019-01-26T06:27:20.544Z,35.70
2019-01-26T06:28:20.533Z,36.70
2019-01-26T06:29:20.522Z,38.60
2019-01-26T06:30:20.512Z,37.00
2019-01-26T06:31:20.513Z,37.40
2019-01-26T06:32:20.489Z,35.80
2019-01-26T06:33:20.478Z,36.90
2019-01-26T06:34:20.468Z,37.90
2019-01-26T06:35:20.459Z,37.30
2019-01-26T06:36:20.448Z,38.10
2019-01-26T06:37:20.441Z,36.70
2019-01-26T06:38:20.425Z,35.50
2019-01-26T06:39:20.415Z,36.30
2019-01-26T06:40:20.403Z,36.80
2019-01-26T06:41:20.393Z,40.40
2019-01-26T06:42:20.387Z,37.10
2019-01-26T06:43:20.393Z,39.50
2019-01-26T06:44:20.359Z,37.40
2019-01-26T06:45:20.350Z,39.90
2019-01-26T06:46:20.338Z,36.40
2019-01-26T06:47:20.329Z,36.50
2019-01-26T06:48:20.315Z,36.20
2019-01-26T06:49:20.305Z,36.90
2019-01-26T06:50:20.297Z,37.10
2019-01-26T06:51:20.283Z,37.60
2019-01-26T06:52:20.273Z,36.30
2019-01-26T06:53:20.262Z,35.30
2019-01-26T06:54:20.254Z,36.90
2019-01-26T06:55:20.240Z,38.40
2019-01-26T06:56:20.231Z,37.20
2019-01-26T06:57:20.220Z,36.20
2019-01-26T06:58:20.208Z,37.90
2019-01-26T06:59:20.206Z,34.50
2019-01-26T07:00:20.185Z,34.80
2019-01-26T07:01:20.182Z,34.70
2019-01-26T07:02:20.166Z,33.50
2019-01-26T07:03:20.152Z,35.60
2019-01-26T07:04:39.781Z,34.30
2019-01-26T07:06:22.293Z,33.80
2019-01-26T07:07:21.810Z,38.40
2019-01-26T07:08:45.234Z,31.80
2019-01-26T07:09:45.219Z,36.20
2019-01-26T07:10:45.208Z,36.10
2019-01-26T07:11:45.198Z,40.30
2019-01-26T07:12:45.191Z,39.60
2019-01-26T07:13:45.176Z,40.60
2019-01-26T07:14:45.165Z,37.60
2019-01-26T07:15:45.153Z,38.50
2019-01-26T07:16:45.144Z,36.40
2019-01-26T07:17:45.132Z,34.90
2019-01-26T07:18:45.123Z,35.60
2019-01-26T07:19:45.125Z,36.30
2019-01-26T07:20:45.099Z,36.10
2019-01-26T07:21:45.096Z,36.80
2019-01-26T07:22:45.085Z,35.80
2019-01-26T07:23:45.066Z,35.90
2019-01-26T07:24:45.061Z,36.00
2019-01-26T07:25:45.056Z,35.90
2019-01-26T07:26:45.036Z,37.10
2019-01-26T07:27:45.023Z,36.50
2019-01-26T07:28:45.013Z,35.40
2019-01-26T07:29:45.003Z,34.90
2019-01-26T07:30:44.991Z,35.10
2019-01-26T07:31:44.982Z,35.10
2019-01-26T07:32:44.969Z,35.00
2019-01-26T07:33:44.959Z,35.40
2019-01-26T07:34:44.945Z,34.00
2019-01-26T07:35:44.934Z,36.20
2019-01-26T07:36:44.925Z,37.30
2019-01-26T07:37:44.919Z,35.60
2019-01-26T07:38:44.903Z,33.60
2019-01-26T07:39:44.890Z,33.10
2019-01-26T07:40:44.879Z,34.60
2019-01-26T07:41:44.872Z,35.60
2019-01-26T07:42:44.863Z,35.00
2019-01-26T07:43:44.846Z,34.80
2019-01-26T07:44:44.835Z,33.10
2019-01-26T07:45:44.824Z,35.00
2019-01-26T07:46:44.816Z,40.30
2019-01-26T07:47:44.810Z,38.40
2019-01-26T07:48:44.793Z,42.20
2019-01-26T07:49:44.780Z,38.30
2019-01-26T07:50:44.770Z,39.60
2019-01-26T07:51:44.758Z,37.00
2019-01-26T07:52:44.747Z,36.60
2019-01-26T07:53:44.741Z,36.20
2019-01-26T07:54:44.728Z,35.00
2019-01-26T07:55:44.714Z,34.10
2019-01-26T07:56:44.703Z,33.00
2019-01-26T07:57:44.692Z,34.00
2019-01-26T07:58:44.685Z,31.60
2019-01-26T07:59:44.674Z,32.80
2019-01-26T08:00:44.661Z,32.10
2019-01-26T08:01:44.648Z,32.90
2019-01-26T08:02:44.637Z,31.40
2019-01-26T08:03:44.626Z,33.10
2019-01-26T08:04:44.618Z,32.20
2019-01-26T08:05:44.604Z,32.90
2019-01-26T08:06:44.594Z,32.20
2019-01-26T08:07:44.584Z,32.80
2019-01-26T08:08:44.572Z,31.10
2019-01-26T08:09:44.563Z,29.90
2019-01-26T08:10:44.553Z,30.50
2019-01-26T08:11:44.540Z,30.70
2019-01-26T08:12:44.530Z,29.60
2019-01-26T08:13:44.516Z,29.40
2019-01-26T08:14:44.507Z,28.80
2019-01-26T08:15:44.505Z,29.50
2019-01-26T08:16:44.490Z,31.50
2019-01-26T08:17:44.472Z,30.60
2019-01-26T08:18:44.462Z,28.60
2019-01-26T08:19:44.452Z,28.80
2019-01-26T08:20:44.474Z,28.40
2019-01-26T08:21:44.452Z,27.60
2019-01-26T08:22:44.418Z,29.60
2019-01-26T08:23:44.412Z,29.40
2019-01-26T08:24:44.689Z,30.50
2019-01-26T08:25:44.394Z,28.70
2019-01-26T08:26:44.386Z,27.00
2019-01-26T08:27:44.367Z,27.30
2019-01-26T08:28:44.354Z,28.50
2019-01-26T08:29:44.349Z,29.20
2019-01-26T08:30:44.335Z,29.40
2019-01-26T08:31:44.319Z,32.70
2019-01-26T08:32:44.313Z,30.90
2019-01-26T08:33:44.299Z,29.70
2019-01-26T08:34:44.287Z,31.10
2019-01-26T08:35:44.275Z,31.20
2019-01-26T08:36:44.265Z,29.40
2019-01-26T08:37:44.254Z,31.00
2019-01-26T08:38:44.243Z,29.50
2019-01-26T08:39:44.239Z,37.40
2019-01-26T08:40:44.221Z,33.90
2019-01-26T08:41:44.210Z,36.20
2019-01-26T08:42:44.198Z,33.90
2019-01-26T08:43:44.187Z,33.80
2019-01-26T08:44:44.181Z,36.20
2019-01-26T08:45:44.165Z,34.60
2019-01-26T08:46:44.154Z,34.80
2019-01-26T08:47:44.143Z,32.10
2019-01-26T08:48:44.134Z,33.40
2019-01-26T08:49:44.126Z,32.00
2019-01-26T08:50:44.114Z,34.00
2019-01-26T08:51:44.098Z,39.40
2019-01-26T08:52:44.091Z,39.50
2019-01-26T08:53:44.076Z,37.50
2019-01-26T08:54:44.067Z,38.10
2019-01-26T08:55:44.058Z,34.60
2019-01-26T08:56:44.042Z,40.80
2019-01-26T08:57:44.034Z,35.10
2019-01-26T08:58:44.026Z,33.70
2019-01-26T08:59:44.011Z,35.70
2019-01-26T09:00:43.999Z,33.40
2019-01-26T09:01:43.992Z,34.20
2019-01-26T09:02:43.999Z,35.10
2019-01-26T09:03:43.972Z,34.90
2019-01-26T09:04:43.957Z,33.20
2019-01-26T09:05:43.945Z,33.80
2019-01-26T09:06:43.941Z,33.80
2019-01-26T09:09:10.874Z,30.80
2019-01-26T09:10:29.016Z,33.70
2019-01-26T09:11:52.405Z,37.80
2019-01-26T09:13:10.547Z,38.40
2019-01-26T09:14:33.941Z,34.20
2019-01-26T09:15:33.928Z,35.30
2019-01-26T09:17:04.406Z,31.70
2019-01-26T09:18:04.402Z,34.30
2019-01-26T09:19:04.380Z,34.80
2019-01-26T09:20:04.373Z,37.50
2019-01-26T09:21:04.360Z,35.90
2019-01-26T09:22:04.364Z,37.00
2019-01-26T09:23:04.336Z,36.50
2019-01-26T09:24:04.328Z,36.00
2019-01-26T09:25:04.316Z,35.30
2019-01-26T09:26:04.304Z,35.60
2019-01-26T09:27:04.299Z,35.90
2019-01-26T09:28:04.282Z,35.30
2019-01-26T09:29:04.270Z,35.40
2019-01-26T09:30:04.269Z,33.10
2019-01-26T09:31:04.249Z,34.10
2019-01-26T09:32:04.241Z,33.10
2019-01-26T09:33:04.231Z,33.60
2019-01-26T09:34:04.226Z,35.30
2019-01-26T09:35:04.214Z,32.20
2019-01-26T09:36:04.204Z,36.10
2019-01-26T09:37:04.186Z,34.50
2019-01-26T09:38:04.174Z,33.60
2019-01-26T09:39:04.163Z,35.50
2019-01-26T09:40:04.158Z,35.20
2019-01-26T09:41:04.140Z,32.50
2019-01-26T09:42:04.171Z,33.60
2019-01-26T09:43:04.118Z,31.30
2019-01-26T09:44:04.109Z,32.60
2019-01-26T09:45:04.097Z,34.20
2019-01-26T09:46:04.085Z,33.00
2019-01-26T09:47:04.078Z,33.70
2019-01-26T09:48:04.063Z,35.50
2019-01-26T09:49:04.053Z,31.70
2019-01-26T09:50:04.041Z,31.20
2019-01-26T09:51:04.031Z,33.50
2019-01-26T09:52:04.024Z,32.70
2019-01-26T09:53:04.010Z,33.30
2019-01-26T09:54:03.999Z,32.80
2019-01-26T09:55:03.988Z,37.30
2019-01-26T09:56:03.975Z,31.10
2019-01-26T09:57:03.971Z,32.50
2019-01-26T09:58:03.956Z,31.20
2019-01-26T09:59:03.983Z,32.30
2019-01-26T10:00:04.090Z,31.70
2019-01-26T10:01:04.501Z,32.70
2019-01-26T10:02:03.913Z,31.00
2019-01-26T10:03:03.911Z,32.00
2019-01-26T10:04:04.083Z,31.60
2019-01-26T10:05:03.930Z,32.80
2019-01-26T10:06:03.895Z,30.60
2019-01-26T10:07:03.870Z,32.40
2019-01-26T10:08:03.954Z,30.40
2019-01-26T10:09:03.839Z,30.60
2019-01-26T10:10:03.944Z,30.00
2019-01-26T10:11:03.811Z,29.70
2019-01-26T10:12:03.802Z,28.80
2019-01-26T10:13:03.789Z,31.50
2019-01-26T10:14:03.779Z,29.70
2019-01-26T10:15:03.779Z,29.40
2019-01-26T10:16:03.757Z,28.60
2019-01-26T10:17:03.748Z,28.60
2019-01-26T10:18:03.734Z,28.60
2019-01-26T10:19:03.743Z,28.40
2019-01-26T10:20:03.713Z,28.30
2019-01-26T10:21:03.702Z,28.60
2019-01-26T10:22:03.692Z,29.40
2019-01-26T10:23:03.680Z,29.10
2019-01-26T10:24:03.670Z,28.70
2019-01-26T10:25:03.658Z,29.30
2019-01-26T10:26:03.651Z,27.80
2019-01-26T10:27:03.635Z,27.80
2019-01-26T10:28:03.624Z,29.10
2019-01-26T10:29:03.613Z,28.50
2019-01-26T10:30:03.603Z,27.70
2019-01-26T10:31:03.591Z,27.00
2019-01-26T10:32:03.580Z,28.40
2019-01-26T10:33:03.569Z,27.40
2019-01-26T10:34:03.562Z,27.90
2019-01-26T10:35:03.548Z,29.60
2019-01-26T10:36:24.054Z,29.60
2019-01-26T10:37:46.099Z,27.50
2019-01-26T10:38:46.082Z,30.00
2019-01-26T10:40:28.213Z,24.30
2019-01-26T10:41:28.170Z,27.60
2019-01-26T10:42:28.149Z,27.20
2019-01-26T10:43:28.122Z,27.00
2019-01-26T10:44:28.100Z,27.60
2019-01-26T10:45:28.088Z,27.20
2019-01-26T10:46:28.077Z,26.70
2019-01-26T10:47:28.068Z,25.20
2019-01-26T10:48:28.061Z,25.60
2019-01-26T10:49:28.048Z,26.30
2019-01-26T10:50:28.032Z,25.60
2019-01-26T10:51:28.021Z,24.30
2019-01-26T10:52:28.020Z,26.00
2019-01-26T10:53:27.995Z,23.60
2019-01-26T10:54:27.984Z,24.60
2019-01-26T10:55:27.975Z,23.60
2019-01-26T10:56:27.964Z,24.10
2019-01-26T10:57:27.954Z,25.10
2019-01-26T10:58:27.941Z,25.60
2019-01-26T10:59:27.937Z,26.10
2019-01-26T11:00:27.923Z,24.80
2019-01-26T11:01:27.908Z,25.10
2019-01-26T11:02:27.922Z,25.10
2019-01-26T11:03:27.888Z,24.80
2019-01-26T11:04:27.877Z,24.80
2019-01-26T11:05:27.895Z,24.90
2019-01-26T11:06:27.853Z,26.30
2019-01-26T11:07:27.845Z,24.70
2019-01-26T11:08:27.831Z,24.90
2019-01-26T11:09:27.824Z,25.70
2019-01-26T11:10:27.808Z,25.70
2019-01-26T11:11:27.801Z,26.40
2019-01-26T11:12:27.800Z,25.20
2019-01-26T11:13:27.820Z,24.40
2019-01-26T11:14:27.772Z,26.40
2019-01-26T11:15:27.763Z,24.90
2019-01-26T11:16:27.745Z,25.80
2019-01-26T11:17:27.773Z,24.60
2019-01-26T11:18:27.728Z,24.90
2019-01-26T11:19:27.732Z,24.90
2019-01-26T11:20:27.697Z,26.10
2019-01-26T11:21:27.689Z,24.20
2019-01-26T11:22:27.682Z,24.50
2019-01-26T11:23:27.673Z,24.80
2019-01-26T11:24:27.653Z,25.10
2019-01-26T11:25:27.646Z,24.50
2019-01-26T11:26:27.632Z,25.70
2019-01-26T11:27:27.639Z,24.80
2019-01-26T11:28:27.611Z,24.60
2019-01-26T11:29:27.602Z,23.50
2019-01-26T11:30:27.588Z,23.70
2019-01-26T11:31:27.590Z,22.60
2019-01-26T11:32:27.567Z,22.50
2019-01-26T11:33:27.556Z,23.50
2019-01-26T11:34:27.543Z,24.30
2019-01-26T11:35:27.532Z,23.80
2019-01-26T11:36:27.523Z,22.90
2019-01-26T11:37:27.510Z,22.40
2019-01-26T11:38:27.499Z,22.60
2019-01-26T11:39:27.488Z,20.50
2019-01-26T11:40:27.480Z,21.90
2019-01-26T11:41:27.468Z,22.30
2019-01-26T11:42:27.455Z,20.90
2019-01-26T11:43:27.443Z,21.20
2019-01-26T11:44:27.440Z,20.50
2019-01-26T11:45:27.424Z,20.00
2019-01-26T11:46:27.434Z,18.90
2019-01-26T11:47:27.407Z,18.90
2019-01-26T11:48:27.391Z,22.70
2019-01-26T11:49:27.378Z,22.70
2019-01-26T11:50:27.367Z,21.20
2019-01-26T11:51:27.358Z,19.10
2019-01-26T11:52:27.362Z,19.80
2019-01-26T11:53:27.332Z,17.80
2019-01-26T11:54:27.336Z,17.30
2019-01-26T11:55:27.310Z,17.00
2019-01-26T11:56:27.302Z,17.00
2019-01-26T11:57:27.294Z,17.80
2019-01-26T11:58:27.322Z,17.00
2019-01-26T11:59:27.278Z,16.20
2019-01-26T12:00:27.255Z,16.50
2019-01-26T12:01:27.245Z,16.30
2019-01-26T12:02:30.003Z,17.70
2019-01-26T12:03:46.968Z,16.50
2019-01-26T12:05:09.279Z,14.90
2019-01-26T12:06:28.909Z,15.90
2019-01-26T12:07:51.336Z,15.80
2019-01-26T12:09:10.925Z,15.90
2019-01-26T12:10:33.336Z,13.80
2019-01-26T12:11:51.490Z,16.10
2019-01-26T12:13:15.384Z,15.70
2019-01-26T12:14:15.349Z,14.80
2019-01-26T12:15:15.334Z,16.00
2019-01-26T12:16:15.325Z,15.80
2019-01-26T12:17:15.314Z,16.30
2019-01-26T12:18:15.338Z,15.90
2019-01-26T12:19:22.161Z,16.60
2019-01-26T12:20:16.285Z,16.40
2019-01-26T12:21:15.268Z,15.20
2019-01-26T12:22:15.259Z,14.70
2019-01-26T12:23:15.248Z,14.60
2019-01-26T12:24:15.236Z,14.50
2019-01-26T12:25:15.227Z,14.70
2019-01-26T12:26:15.212Z,15.20
2019-01-26T12:27:15.203Z,14.70
2019-01-26T12:28:15.212Z,15.60
2019-01-26T12:29:15.181Z,14.50
2019-01-26T12:30:15.175Z,14.30
2019-01-26T12:31:15.159Z,14.10
2019-01-26T12:32:15.149Z,14.00
2019-01-26T12:33:15.144Z,14.20
2019-01-26T12:34:15.132Z,12.40
2019-01-26T12:35:15.115Z,13.10
2019-01-26T12:36:15.108Z,12.90
2019-01-26T12:37:15.182Z,12.70
2019-01-26T12:38:15.084Z,12.60
2019-01-26T12:39:15.075Z,11.50
2019-01-26T12:40:15.071Z,11.60
2019-01-26T12:41:15.050Z,11.40
2019-01-26T12:42:15.038Z,10.70
2019-01-26T12:43:15.028Z,10.00
2019-01-26T12:44:15.021Z,10.30
2019-01-26T12:45:15.010Z,10.10
2019-01-26T12:46:15.024Z,9.90
2019-01-26T12:47:17.130Z,9.60
2019-01-26T12:48:14.976Z,9.00
2019-01-26T12:49:14.974Z,10.00
2019-01-26T12:50:14.958Z,8.80
2019-01-26T12:51:14.947Z,9.10
2019-01-26T12:52:14.929Z,9.10
2019-01-26T12:53:14.918Z,8.20
2019-01-26T12:54:14.905Z,9.90
2019-01-26T12:55:14.900Z,9.70
2019-01-26T12:56:14.907Z,9.00
2019-01-26T12:57:14.873Z,9.80
2019-01-26T12:58:14.863Z,8.90
2019-01-26T12:59:14.851Z,8.50
2019-01-26T13:00:14.840Z,7.60
2019-01-26T13:01:14.831Z,7.20
2019-01-26T13:02:14.823Z,8.00
2019-01-26T13:04:42.062Z,7.10
2019-01-26T13:05:42.055Z,7.90
2019-01-26T13:06:42.042Z,8.50
2019-01-26T13:07:42.028Z,8.70
2019-01-26T13:08:42.018Z,7.70
2019-01-26T13:09:42.012Z,8.90